BEL1MA EBAW-EKCH
Flight info
| Callsign | BEL1MA |
|---|---|
| Flight time | N/A |
| Altitude | 37000 |
| Route | NIK L191 VICOT N873 JUIST DCT DOSUR P729 TUDLO |
| Aircraft | A320/M-SDE3FGHIRWY/LB1 |
Departure
| Time | 2026-04-27 18:23 |
|---|---|
| Airport | Antwerp International Airport (Deurne) (EBAW) |
Arrival
| Time | N/A |
|---|---|
| Airport | Copenhagen Kastrup Airport (EKCH) |
| Time | Latitude | Longitude | Altitude | Speed | Heading |
|---|---|---|---|---|---|
| 2026-04-27 18:02 | 51.18895 | 4.45223 | 39 ft | 0 kts | 152° |
| 2026-04-27 18:19 | 51.18890 | 4.45227 | 37 ft | 4 kts | 149° |
| 2026-04-27 18:19 | 51.18876 | 4.45267 | 38 ft | 4 kts | 97° |
| 2026-04-27 18:19 | 51.18880 | 4.45338 | 39 ft | 9 kts | 79° |
| 2026-04-27 18:19 | 51.18933 | 4.45395 | 39 ft | 12 kts | 8° |
| 2026-04-27 18:20 | 51.19005 | 4.45492 | 39 ft | 15 kts | 32° |
| 2026-04-27 18:20 | 51.19083 | 4.45451 | 38 ft | 0 kts | 320° |
| 2026-04-27 18:22 | 51.19110 | 4.45415 | 39 ft | 13 kts | 322° |
| 2026-04-27 18:22 | 51.19202 | 4.45333 | 41 ft | 9 kts | 28° |
| 2026-04-27 18:22 | 51.19205 | 4.45392 | 41 ft | 0 kts | 105° |
| 2026-04-27 18:23 | 51.19204 | 4.45401 | 39 ft | 9 kts | 105° |
| 2026-04-27 18:23 | 51.19080 | 4.45959 | 43 ft | 95 kts | 110° |
| 2026-04-27 18:23 | 51.18801 | 4.47286 | 117 ft | 149 kts | 105° |
| 2026-04-27 18:23 | 51.18435 | 4.48836 | 867 ft | 150 kts | 108° |
| 2026-04-27 18:24 | 51.18038 | 4.50376 | 1693 ft | 149 kts | 108° |
| 2026-04-27 18:24 | 51.17505 | 4.51806 | 2386 ft | 151 kts | 123° |
| 2026-04-27 18:24 | 51.16766 | 4.53016 | 3014 ft | 154 kts | 136° |
| 2026-04-27 18:24 | 51.15862 | 4.53997 | 3513 ft | 165 kts | 148° |
| 2026-04-27 18:25 | 51.14743 | 4.54674 | 3877 ft | 184 kts | 165° |
| 2026-04-27 18:25 | 51.13410 | 4.54754 | 4236 ft | 203 kts | 191° |
| 2026-04-27 18:25 | 51.12142 | 4.53547 | 4532 ft | 228 kts | 232° |
| 2026-04-27 18:25 | 51.11569 | 4.51136 | 4941 ft | 246 kts | 270° |
| 2026-04-27 18:26 | 51.11889 | 4.48419 | 5522 ft | 260 kts | 292° |
| 2026-04-27 18:26 | 51.12737 | 4.45810 | 6270 ft | 270 kts | 303° |
| 2026-04-27 18:26 | 51.13781 | 4.43307 | 7194 ft | 272 kts | 309° |
| 2026-04-27 18:26 | 51.15193 | 4.41308 | 8100 ft | 275 kts | 330° |
| 2026-04-27 18:27 | 51.17016 | 4.40353 | 8988 ft | 280 kts | 349° |
| 2026-04-27 18:27 | 51.18948 | 4.39817 | 9882 ft | 284 kts | 349° |
| 2026-04-27 18:27 | 51.20919 | 4.39282 | 10558 ft | 296 kts | 348° |
| 2026-04-27 18:27 | 51.23032 | 4.38707 | 10848 ft | 320 kts | 348° |
| 2026-04-27 18:28 | 51.25285 | 4.38087 | 11316 ft | 334 kts | 348° |
| 2026-04-27 18:28 | 51.27599 | 4.37448 | 12056 ft | 340 kts | 348° |
| 2026-04-27 18:28 | 51.29949 | 4.36797 | 12835 ft | 344 kts | 347° |
| 2026-04-27 18:28 | 51.32323 | 4.36135 | 13599 ft | 349 kts | 347° |
| 2026-04-27 18:29 | 51.34730 | 4.35463 | 14328 ft | 353 kts | 346° |
| 2026-04-27 18:29 | 51.37168 | 4.34783 | 15022 ft | 357 kts | 347° |
| 2026-04-27 18:29 | 51.39592 | 4.34106 | 15715 ft | 359 kts | 347° |
| 2026-04-27 18:29 | 51.42063 | 4.33413 | 16408 ft | 362 kts | 347° |
| 2026-04-27 18:30 | 51.44553 | 4.32711 | 17093 ft | 365 kts | 347° |
| 2026-04-27 18:30 | 51.47066 | 4.31999 | 17780 ft | 368 kts | 347° |
| 2026-04-27 18:30 | 51.49631 | 4.31273 | 18489 ft | 371 kts | 347° |
| 2026-04-27 18:30 | 51.52158 | 4.30561 | 18991 ft | 376 kts | 346° |
| 2026-04-27 18:31 | 51.54750 | 4.29835 | 19555 ft | 380 kts | 346° |
| 2026-04-27 18:31 | 51.57370 | 4.29102 | 20127 ft | 384 kts | 346° |
| 2026-04-27 18:31 | 51.60010 | 4.28361 | 20705 ft | 387 kts | 346° |
| 2026-04-27 18:31 | 51.62674 | 4.27610 | 21280 ft | 390 kts | 346° |
| 2026-04-27 18:32 | 51.65358 | 4.26848 | 21856 ft | 394 kts | 346° |
| 2026-04-27 18:32 | 51.68069 | 4.26073 | 22424 ft | 397 kts | 345° |
| 2026-04-27 18:32 | 51.70811 | 4.25383 | 22972 ft | 403 kts | 351° |
| 2026-04-27 18:32 | 51.73646 | 4.25407 | 23526 ft | 413 kts | 1° |
| 2026-04-27 18:33 | 51.76496 | 4.26338 | 23982 ft | 423 kts | 13° |
| 2026-04-27 18:33 | 51.79245 | 4.28158 | 24393 ft | 430 kts | 21° |
| 2026-04-27 18:33 | 51.81961 | 4.30222 | 24814 ft | 433 kts | 21° |
| 2026-04-27 18:33 | 51.84702 | 4.32293 | 25226 ft | 436 kts | 21° |
| 2026-04-27 18:34 | 51.87462 | 4.34372 | 25623 ft | 439 kts | 21° |
| 2026-04-27 18:34 | 51.90237 | 4.36462 | 26013 ft | 442 kts | 21° |
| 2026-04-27 18:34 | 51.93033 | 4.38571 | 26396 ft | 444 kts | 21° |
| 2026-04-27 18:34 | 51.95842 | 4.40692 | 26780 ft | 447 kts | 21° |
| 2026-04-27 18:35 | 51.98676 | 4.42836 | 27155 ft | 451 kts | 21° |
| 2026-04-27 18:35 | 52.01532 | 4.45000 | 27498 ft | 454 kts | 21° |
| 2026-04-27 18:35 | 52.04370 | 4.47154 | 27850 ft | 457 kts | 21° |
| 2026-04-27 18:35 | 52.07262 | 4.49355 | 28205 ft | 460 kts | 21° |
| 2026-04-27 18:36 | 52.10164 | 4.51572 | 28565 ft | 462 kts | 21° |
| 2026-04-27 18:36 | 52.13084 | 4.53803 | 28887 ft | 465 kts | 21° |
| 2026-04-27 18:36 | 52.16019 | 4.56041 | 29217 ft | 467 kts | 21° |
| 2026-04-27 18:36 | 52.18954 | 4.58354 | 29534 ft | 471 kts | 26° |
| 2026-04-27 18:37 | 52.21609 | 4.61563 | 29861 ft | 480 kts | 42° |
| 2026-04-27 18:37 | 52.23971 | 4.65442 | 30135 ft | 483 kts | 44° |
| 2026-04-27 18:37 | 52.26322 | 4.69376 | 30402 ft | 486 kts | 44° |
| 2026-04-27 18:37 | 52.28677 | 4.73355 | 30645 ft | 488 kts | 44° |
| 2026-04-27 18:38 | 52.31035 | 4.77354 | 30888 ft | 489 kts | 44° |
| 2026-04-27 18:38 | 52.33399 | 4.81369 | 31126 ft | 491 kts | 44° |
| 2026-04-27 18:38 | 52.35741 | 4.85345 | 31347 ft | 493 kts | 44° |
| 2026-04-27 18:38 | 52.38126 | 4.89389 | 31641 ft | 492 kts | 44° |
| 2026-04-27 18:39 | 52.40502 | 4.93417 | 31962 ft | 491 kts | 44° |
| 2026-04-27 18:39 | 52.42874 | 4.97440 | 32301 ft | 490 kts | 44° |
| 2026-04-27 18:39 | 52.45241 | 5.01460 | 32639 ft | 489 kts | 43° |
| 2026-04-27 18:39 | 52.47602 | 5.05476 | 32970 ft | 489 kts | 43° |
| 2026-04-27 18:40 | 52.49955 | 5.09492 | 33288 ft | 488 kts | 43° |
| 2026-04-27 18:40 | 52.52306 | 5.13512 | 33604 ft | 488 kts | 43° |
| 2026-04-27 18:40 | 52.54652 | 5.17533 | 33918 ft | 487 kts | 43° |
| 2026-04-27 18:40 | 52.56995 | 5.21551 | 34242 ft | 487 kts | 43° |
| 2026-04-27 18:41 | 52.59338 | 5.25570 | 34513 ft | 486 kts | 43° |
| 2026-04-27 18:41 | 52.61645 | 5.29530 | 34790 ft | 485 kts | 43° |
| 2026-04-27 18:41 | 52.63972 | 5.33534 | 35090 ft | 483 kts | 43° |
| 2026-04-27 18:41 | 52.66288 | 5.37533 | 35449 ft | 480 kts | 43° |
| 2026-04-27 18:42 | 52.68582 | 5.41503 | 35784 ft | 477 kts | 43° |
| 2026-04-27 18:42 | 52.69355 | 5.42843 | 35882 ft | 477 kts | 43° |
| 2026-04-27 18:42 | 52.73141 | 5.49411 | 36331 ft | 474 kts | 43° |
| 2026-04-27 18:42 | 52.75408 | 5.53348 | 36592 ft | 473 kts | 43° |
| 2026-04-27 18:43 | 52.77674 | 5.57289 | 36809 ft | 473 kts | 44° |
| 2026-04-27 18:43 | 52.79936 | 5.61228 | 37019 ft | 472 kts | 44° |
| 2026-04-27 18:43 | 52.82197 | 5.65166 | 37207 ft | 472 kts | 44° |
| 2026-04-27 18:43 | 52.84456 | 5.69108 | 37275 ft | 471 kts | 44° |
| 2026-04-27 18:44 | 52.88944 | 5.76985 | 37275 ft | 469 kts | 44° |
| 2026-04-27 18:44 | 52.93385 | 5.84800 | 37282 ft | 468 kts | 44° |
| 2026-04-27 18:45 | 52.97846 | 5.92668 | 37283 ft | 468 kts | 44° |
| 2026-04-27 18:45 | 53.02299 | 6.00556 | 37288 ft | 468 kts | 44° |
| 2026-04-27 18:46 | 53.06753 | 6.08460 | 37291 ft | 468 kts | 44° |
| 2026-04-27 18:46 | 53.11204 | 6.16381 | 37304 ft | 469 kts | 44° |
| 2026-04-27 18:47 | 53.15656 | 6.24326 | 37298 ft | 469 kts | 44° |
| 2026-04-27 18:47 | 53.19344 | 6.30946 | 37299 ft | 469 kts | 45° |
| 2026-04-27 18:48 | 53.23778 | 6.38921 | 37297 ft | 469 kts | 45° |
| 2026-04-27 18:48 | 53.28211 | 6.46909 | 37300 ft | 469 kts | 45° |
| 2026-04-27 18:49 | 53.32637 | 6.54923 | 37299 ft | 469 kts | 45° |
| 2026-04-27 18:49 | 53.37107 | 6.62749 | 37296 ft | 468 kts | 41° |
| 2026-04-27 18:50 | 53.41896 | 6.70102 | 37302 ft | 467 kts | 39° |
| 2026-04-27 18:50 | 53.46771 | 6.77322 | 37298 ft | 468 kts | 39° |
| 2026-04-27 18:51 | 53.51849 | 6.84033 | 37295 ft | 460 kts | 21° |
| 2026-04-27 18:51 | 53.54854 | 6.85691 | 37311 ft | 451 kts | 6° |
| 2026-04-27 18:51 | 53.57955 | 6.86457 | 37308 ft | 450 kts | 4° |
| 2026-04-27 18:52 | 53.64169 | 6.87749 | 37303 ft | 450 kts | 3° |
| 2026-04-27 18:53 | 53.73478 | 6.89664 | 37305 ft | 451 kts | 3° |
| 2026-04-27 18:53 | 53.79712 | 6.90946 | 37322 ft | 451 kts | 3° |
| 2026-04-27 18:54 | 53.85946 | 6.92204 | 37331 ft | 451 kts | 3° |
| 2026-04-27 18:54 | 53.92170 | 6.93454 | 37332 ft | 450 kts | 3° |
| 2026-04-27 18:55 | 53.98395 | 6.94708 | 37331 ft | 450 kts | 3° |
| 2026-04-27 18:55 | 54.04615 | 6.95963 | 37346 ft | 450 kts | 4° |
| 2026-04-27 18:56 | 54.10825 | 6.97265 | 37343 ft | 451 kts | 10° |
| 2026-04-27 18:56 | 54.13789 | 6.99053 | 37344 ft | 455 kts | 26° |
| 2026-04-27 18:56 | 54.16380 | 7.02173 | 37343 ft | 460 kts | 42° |
| 2026-04-27 18:56 | 54.18378 | 7.06441 | 37337 ft | 463 kts | 58° |
| 2026-04-27 18:57 | 54.19950 | 7.11169 | 37332 ft | 464 kts | 59° |
| 2026-04-27 18:57 | 54.23101 | 7.20803 | 37324 ft | 465 kts | 59° |
| 2026-04-27 18:58 | 54.26264 | 7.30455 | 37320 ft | 466 kts | 58° |
| 2026-04-27 18:58 | 54.29438 | 7.40124 | 37342 ft | 465 kts | 59° |
| 2026-04-27 18:59 | 54.32592 | 7.49791 | 37348 ft | 465 kts | 59° |
| 2026-04-27 18:59 | 54.35734 | 7.59485 | 37340 ft | 465 kts | 59° |
| 2026-04-27 19:00 | 54.38869 | 7.69198 | 37336 ft | 466 kts | 59° |
| 2026-04-27 19:00 | 54.42004 | 7.78929 | 37334 ft | 466 kts | 59° |
| 2026-04-27 19:01 | 54.45110 | 7.88616 | 37338 ft | 466 kts | 59° |
| 2026-04-27 19:01 | 54.48231 | 7.98385 | 37336 ft | 466 kts | 59° |
| 2026-04-27 19:02 | 54.51350 | 8.08170 | 37350 ft | 466 kts | 59° |
| 2026-04-27 19:02 | 54.54458 | 8.17958 | 37350 ft | 466 kts | 59° |
| 2026-04-27 19:03 | 54.57501 | 8.27618 | 37343 ft | 465 kts | 59° |
| 2026-04-27 19:03 | 54.60583 | 8.37425 | 37343 ft | 465 kts | 60° |
| 2026-04-27 19:04 | 54.63655 | 8.47251 | 37339 ft | 465 kts | 60° |
| 2026-04-27 19:04 | 54.66724 | 8.57078 | 37341 ft | 465 kts | 60° |
| 2026-04-27 19:05 | 54.69786 | 8.66915 | 37339 ft | 465 kts | 59° |
| 2026-04-27 19:05 | 54.72829 | 8.76764 | 37346 ft | 464 kts | 60° |
| 2026-04-27 19:06 | 54.75856 | 8.86615 | 37352 ft | 463 kts | 60° |
| 2026-04-27 19:06 | 54.78853 | 8.96395 | 37342 ft | 462 kts | 60° |
| 2026-04-27 19:07 | 54.81857 | 9.06239 | 37331 ft | 462 kts | 60° |
| 2026-04-27 19:07 | 54.84872 | 9.16079 | 37334 ft | 461 kts | 57° |